sensor_id;sensor_type;location;lat;lon;timestamp;temperature;humidity
6752;DHT22;3413;47.680;9.166;2023-06-14T00:03:53;20.90;45.60
6752;DHT22;3413;47.680;9.166;2023-06-14T00:08:56;20.70;45.60
6752;DHT22;3413;47.680;9.166;2023-06-14T00:13:57;20.60;45.70
6752;DHT22;3413;47.680;9.166;2023-06-14T00:18:59;20.60;45.70
6752;DHT22;3413;47.680;9.166;2023-06-14T00:24:01;20.60;45.80
6752;DHT22;3413;47.680;9.166;2023-06-14T00:29:03;20.50;45.70
6752;DHT22;3413;47.680;9.166;2023-06-14T00:34:05;20.40;45.70
6752;DHT22;3413;47.680;9.166;2023-06-14T00:39:07;20.20;45.80
6752;DHT22;3413;47.680;9.166;2023-06-14T00:44:10;20.10;45.90
6752;DHT22;3413;47.680;9.166;2023-06-14T00:49:14;20.00;45.90
6752;DHT22;3413;47.680;9.166;2023-06-14T00:54:17;19.90;46.00
6752;DHT22;3413;47.680;9.166;2023-06-14T00:59:19;19.80;46.00
6752;DHT22;3413;47.680;9.166;2023-06-14T01:04:21;19.70;45.90
6752;DHT22;3413;47.680;9.166;2023-06-14T01:09:36;19.60;46.00
6752;DHT22;3413;47.680;9.166;2023-06-14T01:14:39;19.50;46.10
6752;DHT22;3413;47.680;9.166;2023-06-14T01:19:43;19.40;46.00
6752;DHT22;3413;47.680;9.166;2023-06-14T01:24:48;19.40;46.10
6752;DHT22;3413;47.680;9.166;2023-06-14T01:29:54;19.20;46.00
6752;DHT22;3413;47.680;9.166;2023-06-14T01:34:58;19.10;46.20
6752;DHT22;3413;47.680;9.166;2023-06-14T01:40:04;19.00;46.20
6752;DHT22;3413;47.680;9.166;2023-06-14T01:45:10;18.90;46.30
6752;DHT22;3413;47.680;9.166;2023-06-14T01:50:13;18.80;46.20
6752;DHT22;3413;47.680;9.166;2023-06-14T01:55:15;18.80;46.10
6752;DHT22;3413;47.680;9.166;2023-06-14T02:00:20;18.80;46.10
6752;DHT22;3413;47.680;9.166;2023-06-14T02:05:23;18.90;46.20
6752;DHT22;3413;47.680;9.166;2023-06-14T02:10:25;18.90;46.20
6752;DHT22;3413;47.680;9.166;2023-06-14T02:15:29;18.90;46.10
6752;DHT22;3413;47.680;9.166;2023-06-14T02:20:36;18.90;46.20
6752;DHT22;3413;47.680;9.166;2023-06-14T02:25:38;18.90;46.20
6752;DHT22;3413;47.680;9.166;2023-06-14T02:30:42;18.90;46.20
6752;DHT22;3413;47.680;9.166;2023-06-14T02:35:44;19.00;46.30
6752;DHT22;3413;47.680;9.166;2023-06-14T02:40:46;18.90;46.30
6752;DHT22;3413;47.680;9.166;2023-06-14T02:45:48;18.50;46.50
6752;DHT22;3413;47.680;9.166;2023-06-14T02:50:50;18.00;46.70
6752;DHT22;3413;47.680;9.166;2023-06-14T02:55:53;17.90;46.70
6752;DHT22;3413;47.680;9.166;2023-06-14T03:00:57;18.00;46.70
6752;DHT22;3413;47.680;9.166;2023-06-14T03:05:59;18.00;46.70
6752;DHT22;3413;47.680;9.166;2023-06-14T03:11:08;18.00;46.70
6752;DHT22;3413;47.680;9.166;2023-06-14T03:16:11;18.10;46.80
6752;DHT22;3413;47.680;9.166;2023-06-14T03:21:14;18.10;46.80
6752;DHT22;3413;47.680;9.166;2023-06-14T03:26:19;18.10;46.80
6752;DHT22;3413;47.680;9.166;2023-06-14T03:31:25;18.10;46.90
6752;DHT22;3413;47.680;9.166;2023-06-14T03:36:27;18.10;47.00
6752;DHT22;3413;47.680;9.166;2023-06-14T03:41:29;18.10;47.10
6752;DHT22;3413;47.680;9.166;2023-06-14T03:46:32;18.10;47.10
6752;DHT22;3413;47.680;9.166;2023-06-14T03:51:34;18.00;47.00
6752;DHT22;3413;47.680;9.166;2023-06-14T03:56:37;18.10;47.20
6752;DHT22;3413;47.680;9.166;2023-06-14T04:01:42;18.10;47.10
6752;DHT22;3413;47.680;9.166;2023-06-14T04:06:48;18.20;47.30
6752;DHT22;3413;47.680;9.166;2023-06-14T04:11:54;18.20;47.30
6752;DHT22;3413;47.680;9.166;2023-06-14T04:16:58;18.20;47.50
6752;DHT22;3413;47.680;9.166;2023-06-14T04:22:00;18.10;47.40
6752;DHT22;3413;47.680;9.166;2023-06-14T04:27:07;18.10;47.60
6752;DHT22;3413;47.680;9.166;2023-06-14T04:32:11;18.10;47.60
6752;DHT22;3413;47.680;9.166;2023-06-14T04:37:15;18.10;47.70
6752;DHT22;3413;47.680;9.166;2023-06-14T04:42:19;18.10;47.80
6752;DHT22;3413;47.680;9.166;2023-06-14T04:47:22;18.10;47.90
6752;DHT22;3413;47.680;9.166;2023-06-14T04:52:26;18.20;48.10
6752;DHT22;3413;47.680;9.166;2023-06-14T04:57:30;18.20;48.10
6752;DHT22;3413;47.680;9.166;2023-06-14T05:02:34;18.20;48.20
6752;DHT22;3413;47.680;9.166;2023-06-14T05:07:37;18.30;48.40
6752;DHT22;3413;47.680;9.166;2023-06-14T05:12:43;18.40;48.60
6752;DHT22;3413;47.680;9.166;2023-06-14T05:17:46;18.40;48.60
6752;DHT22;3413;47.680;9.166;2023-06-14T05:22:55;18.50;48.70
6752;DHT22;3413;47.680;9.166;2023-06-14T05:27:58;18.70;48.80
6752;DHT22;3413;47.680;9.166;2023-06-14T05:33:00;18.80;48.80
6752;DHT22;3413;47.680;9.166;2023-06-14T05:38:02;18.80;48.90
6752;DHT22;3413;47.680;9.166;2023-06-14T05:43:04;18.90;49.10
6752;DHT22;3413;47.680;9.166;2023-06-14T05:48:06;19.00;49.80
6752;DHT22;3413;47.680;9.166;2023-06-14T05:53:08;19.10;49.40
6752;DHT22;3413;47.680;9.166;2023-06-14T05:58:10;19.20;49.40
6752;DHT22;3413;47.680;9.166;2023-06-14T06:03:12;19.30;49.50
6752;DHT22;3413;47.680;9.166;2023-06-14T06:08:14;19.40;49.70
6752;DHT22;3413;47.680;9.166;2023-06-14T06:13:18;19.60;49.70
6752;DHT22;3413;47.680;9.166;2023-06-14T06:18:20;19.70;49.80
6752;DHT22;3413;47.680;9.166;2023-06-14T06:23:22;19.80;49.80
6752;DHT22;3413;47.680;9.166;2023-06-14T06:28:25;20.00;49.90
6752;DHT22;3413;47.680;9.166;2023-06-14T06:33:27;20.20;50.00
6752;DHT22;3413;47.680;9.166;2023-06-14T06:38:28;20.30;49.90
6752;DHT22;3413;47.680;9.166;2023-06-14T06:43:30;20.50;50.00
6752;DHT22;3413;47.680;9.166;2023-06-14T06:48:32;20.70;50.10
6752;DHT22;3413;47.680;9.166;2023-06-14T06:53:34;20.90;50.10
6752;DHT22;3413;47.680;9.166;2023-06-14T06:58:46;21.00;50.10
6752;DHT22;3413;47.680;9.166;2023-06-14T07:03:47;21.20;50.80
6752;DHT22;3413;47.680;9.166;2023-06-14T07:08:49;21.40;50.20
6752;DHT22;3413;47.680;9.166;2023-06-14T07:13:51;21.50;50.10
6752;DHT22;3413;47.680;9.166;2023-06-14T07:18:54;21.70;50.20
6752;DHT22;3413;47.680;9.166;2023-06-14T07:23:56;21.80;50.20
6752;DHT22;3413;47.680;9.166;2023-06-14T07:28:58;22.00;50.30
6752;DHT22;3413;47.680;9.166;2023-06-14T07:34:00;22.10;50.30
6752;DHT22;3413;47.680;9.166;2023-06-14T07:39:02;22.30;50.40
6752;DHT22;3413;47.680;9.166;2023-06-14T07:44:05;22.50;50.40
6752;DHT22;3413;47.680;9.166;2023-06-14T07:49:07;22.60;50.50
6752;DHT22;3413;47.680;9.166;2023-06-14T07:54:09;22.80;50.50
6752;DHT22;3413;47.680;9.166;2023-06-14T07:59:11;23.10;50.60
6752;DHT22;3413;47.680;9.166;2023-06-14T08:04:14;23.30;50.70
6752;DHT22;3413;47.680;9.166;2023-06-14T08:09:16;23.50;50.70
6752;DHT22;3413;47.680;9.166;2023-06-14T08:14:18;23.70;50.80
6752;DHT22;3413;47.680;9.166;2023-06-14T08:19:20;23.90;50.80
6752;DHT22;3413;47.680;9.166;2023-06-14T08:24:22;24.10;50.90
6752;DHT22;3413;47.680;9.166;2023-06-14T08:29:28;24.40;51.00
6752;DHT22;3413;47.680;9.166;2023-06-14T08:34:33;24.60;51.00
6752;DHT22;3413;47.680;9.166;2023-06-14T08:39:35;24.80;51.10
6752;DHT22;3413;47.680;9.166;2023-06-14T08:44:37;25.00;51.10
6752;DHT22;3413;47.680;9.166;2023-06-14T08:49:40;25.20;50.90
6752;DHT22;3413;47.680;9.166;2023-06-14T08:54:46;25.40;51.00
6752;DHT22;3413;47.680;9.166;2023-06-14T08:59:51;25.60;51.00
6752;DHT22;3413;47.680;9.166;2023-06-14T09:04:56;25.90;51.00
6752;DHT22;3413;47.680;9.166;2023-06-14T09:10:09;26.10;50.90
6752;DHT22;3413;47.680;9.166;2023-06-14T09:15:12;26.40;50.90
6752;DHT22;3413;47.680;9.166;2023-06-14T09:20:15;26.60;50.90
6752;DHT22;3413;47.680;9.166;2023-06-14T09:25:21;26.80;50.80
6752;DHT22;3413;47.680;9.166;2023-06-14T09:30:40;26.90;50.70
6752;DHT22;3413;47.680;9.166;2023-06-14T09:35:42;27.10;50.70
6752;DHT22;3413;47.680;9.166;2023-06-14T09:40:46;27.30;50.70
6752;DHT22;3413;47.680;9.166;2023-06-14T09:45:48;27.50;50.60
6752;DHT22;3413;47.680;9.166;2023-06-14T09:50:53;27.60;50.50
6752;DHT22;3413;47.680;9.166;2023-06-14T09:55:57;27.80;50.40
6752;DHT22;3413;47.680;9.166;2023-06-14T10:01:00;27.90;50.40
6752;DHT22;3413;47.680;9.166;2023-06-14T10:06:07;28.20;50.40
6752;DHT22;3413;47.680;9.166;2023-06-14T10:11:12;28.30;50.10
6752;DHT22;3413;47.680;9.166;2023-06-14T10:16:27;28.20;50.10
6752;DHT22;3413;47.680;9.166;2023-06-14T10:26:32;28.40;49.90
6752;DHT22;3413;47.680;9.166;2023-06-14T10:31:45;28.50;49.80
6752;DHT22;3413;47.680;9.166;2023-06-14T10:37:04;28.80;49.70
6752;DHT22;3413;47.680;9.166;2023-06-14T10:42:06;28.90;49.70
6752;DHT22;3413;47.680;9.166;2023-06-14T10:52:27;29.20;49.70
6752;DHT22;3413;47.680;9.166;2023-06-14T10:57:30;29.40;49.60
6752;DHT22;3413;47.680;9.166;2023-06-14T11:03:43;29.50;49.50
6752;DHT22;3413;47.680;9.166;2023-06-14T11:13:54;29.20;49.30
6752;DHT22;3413;47.680;9.166;2023-06-14T11:18:56;29.40;49.40
6752;DHT22;3413;47.680;9.166;2023-06-14T11:23:57;29.60;49.20
6752;DHT22;3413;47.680;9.166;2023-06-14T11:29:00;29.70;49.20
6752;DHT22;3413;47.680;9.166;2023-06-14T11:34:03;29.90;49.20
6752;DHT22;3413;47.680;9.166;2023-06-14T11:39:07;30.10;49.20
6752;DHT22;3413;47.680;9.166;2023-06-14T11:44:10;30.20;49.00
6752;DHT22;3413;47.680;9.166;2023-06-14T11:49:13;30.10;49.00
6752;DHT22;3413;47.680;9.166;2023-06-14T11:54:15;30.30;49.00
6752;DHT22;3413;47.680;9.166;2023-06-14T11:59:17;30.50;48.90
6752;DHT22;3413;47.680;9.166;2023-06-14T12:04:29;30.70;48.80
6752;DHT22;3413;47.680;9.166;2023-06-14T12:09:31;30.70;48.60
6752;DHT22;3413;47.680;9.166;2023-06-14T12:14:34;30.40;48.50
6752;DHT22;3413;47.680;9.166;2023-06-14T12:19:42;30.30;48.60
6752;DHT22;3413;47.680;9.166;2023-06-14T12:24:45;30.50;48.50
6752;DHT22;3413;47.680;9.166;2023-06-14T12:29:58;30.70;49.10
6752;DHT22;3413;47.680;9.166;2023-06-14T12:35:00;30.90;48.40
6752;DHT22;3413;47.680;9.166;2023-06-14T12:40:03;30.80;48.40
6752;DHT22;3413;47.680;9.166;2023-06-14T12:45:08;31.00;48.20
6752;DHT22;3413;47.680;9.166;2023-06-14T12:50:10;30.90;48.10
6752;DHT22;3413;47.680;9.166;2023-06-14T12:55:12;30.90;48.10
6752;DHT22;3413;47.680;9.166;2023-06-14T13:00:14;31.10;48.10
6752;DHT22;3413;47.680;9.166;2023-06-14T13:05:17;31.20;48.00
6752;DHT22;3413;47.680;9.166;2023-06-14T13:10:19;31.30;48.00
6752;DHT22;3413;47.680;9.166;2023-06-14T13:15:21;31.50;48.00
6752;DHT22;3413;47.680;9.166;2023-06-14T13:20:23;31.70;48.00
6752;DHT22;3413;47.680;9.166;2023-06-14T13:25:25;31.90;47.80
6752;DHT22;3413;47.680;9.166;2023-06-14T13:30:27;31.60;47.70
6752;DHT22;3413;47.680;9.166;2023-06-14T13:35:29;31.60;47.70
6752;DHT22;3413;47.680;9.166;2023-06-14T13:40:31;31.70;47.60
6752;DHT22;3413;47.680;9.166;2023-06-14T13:45:33;31.60;47.50
6752;DHT22;3413;47.680;9.166;2023-06-14T13:50:35;31.70;47.50
6752;DHT22;3413;47.680;9.166;2023-06-14T13:55:37;31.90;47.40
6752;DHT22;3413;47.680;9.166;2023-06-14T14:00:39;31.90;47.40
6752;DHT22;3413;47.680;9.166;2023-06-14T14:05:42;31.70;47.30
6752;DHT22;3413;47.680;9.166;2023-06-14T14:10:44;31.70;47.30
6752;DHT22;3413;47.680;9.166;2023-06-14T14:15:46;31.90;47.40
6752;DHT22;3413;47.680;9.166;2023-06-14T14:20:48;32.10;47.30
6752;DHT22;3413;47.680;9.166;2023-06-14T14:25:50;32.10;47.20
6752;DHT22;3413;47.680;9.166;2023-06-14T14:30:52;32.20;47.20
6752;DHT22;3413;47.680;9.166;2023-06-14T14:35:55;32.20;47.20
6752;DHT22;3413;47.680;9.166;2023-06-14T14:40:57;32.40;47.20
6752;DHT22;3413;47.680;9.166;2023-06-14T14:45:59;32.50;47.20
6752;DHT22;3413;47.680;9.166;2023-06-14T14:51:01;32.50;47.10
6752;DHT22;3413;47.680;9.166;2023-06-14T14:56:04;32.50;47.20
6752;DHT22;3413;47.680;9.166;2023-06-14T15:01:07;32.60;47.10
6752;DHT22;3413;47.680;9.166;2023-06-14T15:06:09;32.70;47.10
6752;DHT22;3413;47.680;9.166;2023-06-14T15:11:11;32.60;46.90
6752;DHT22;3413;47.680;9.166;2023-06-14T15:16:13;32.50;46.90
6752;DHT22;3413;47.680;9.166;2023-06-14T15:21:16;32.60;46.90
6752;DHT22;3413;47.680;9.166;2023-06-14T15:26:20;32.80;46.80
6752;DHT22;3413;47.680;9.166;2023-06-14T15:31:22;32.90;46.60
6752;DHT22;3413;47.680;9.166;2023-06-14T15:36:27;32.80;46.60
6752;DHT22;3413;47.680;9.166;2023-06-14T15:41:29;32.80;46.60
6752;DHT22;3413;47.680;9.166;2023-06-14T15:46:31;32.70;46.50
6752;DHT22;3413;47.680;9.166;2023-06-14T15:51:33;32.70;46.50
6752;DHT22;3413;47.680;9.166;2023-06-14T15:56:35;32.70;46.40
6752;DHT22;3413;47.680;9.166;2023-06-14T16:01:37;32.70;46.30
6752;DHT22;3413;47.680;9.166;2023-06-14T16:06:39;32.80;46.40
6752;DHT22;3413;47.680;9.166;2023-06-14T16:11:41;32.80;46.20
6752;DHT22;3413;47.680;9.166;2023-06-14T16:16:43;32.70;46.20
6752;DHT22;3413;47.680;9.166;2023-06-14T16:21:45;32.70;46.10
6752;DHT22;3413;47.680;9.166;2023-06-14T16:26:47;32.50;46.10
6752;DHT22;3413;47.680;9.166;2023-06-14T16:31:49;32.50;46.10
6752;DHT22;3413;47.680;9.166;2023-06-14T16:36:51;32.60;46.10
6752;DHT22;3413;47.680;9.166;2023-06-14T16:41:53;32.60;46.10
6752;DHT22;3413;47.680;9.166;2023-06-14T16:46:55;32.50;46.00
6752;DHT22;3413;47.680;9.166;2023-06-14T16:51:56;32.40;46.00
6752;DHT22;3413;47.680;9.166;2023-06-14T16:56:58;32.40;45.90
6752;DHT22;3413;47.680;9.166;2023-06-14T17:02:02;32.30;45.80
6752;DHT22;3413;47.680;9.166;2023-06-14T17:07:07;32.20;45.80
6752;DHT22;3413;47.680;9.166;2023-06-14T17:12:09;32.10;45.70
6752;DHT22;3413;47.680;9.166;2023-06-14T17:17:13;32.00;45.60
6752;DHT22;3413;47.680;9.166;2023-06-14T17:22:15;32.10;45.60
6752;DHT22;3413;47.680;9.166;2023-06-14T17:27:17;32.20;45.60
6752;DHT22;3413;47.680;9.166;2023-06-14T17:32:19;32.30;45.50
6752;DHT22;3413;47.680;9.166;2023-06-14T17:37:21;32.20;45.50
6752;DHT22;3413;47.680;9.166;2023-06-14T17:42:23;32.00;45.40
6752;DHT22;3413;47.680;9.166;2023-06-14T17:47:25;31.90;45.40
6752;DHT22;3413;47.680;9.166;2023-06-14T17:52:30;31.50;45.40
6752;DHT22;3413;47.680;9.166;2023-06-14T17:57:32;31.30;45.40
6752;DHT22;3413;47.680;9.166;2023-06-14T18:02:34;31.30;45.40
6752;DHT22;3413;47.680;9.166;2023-06-14T18:07:37;31.20;45.30
6752;DHT22;3413;47.680;9.166;2023-06-14T18:12:40;31.20;45.30
6752;DHT22;3413;47.680;9.166;2023-06-14T18:17:42;31.10;45.30
6752;DHT22;3413;47.680;9.166;2023-06-14T18:22:45;30.90;45.30
6752;DHT22;3413;47.680;9.166;2023-06-14T18:27:47;30.60;45.30
6752;DHT22;3413;47.680;9.166;2023-06-14T18:32:49;30.40;45.30
6752;DHT22;3413;47.680;9.166;2023-06-14T18:37:51;30.20;45.30
6752;DHT22;3413;47.680;9.166;2023-06-14T18:42:53;30.00;45.40
6752;DHT22;3413;47.680;9.166;2023-06-14T18:47:55;29.80;45.40
6752;DHT22;3413;47.680;9.166;2023-06-14T18:52:57;29.60;45.90
6752;DHT22;3413;47.680;9.166;2023-06-14T18:57:59;29.50;45.30
6752;DHT22;3413;47.680;9.166;2023-06-14T19:03:01;29.10;45.30
6752;DHT22;3413;47.680;9.166;2023-06-14T19:08:05;28.80;45.50
6752;DHT22;3413;47.680;9.166;2023-06-14T19:13:07;28.60;45.40
6752;DHT22;3413;47.680;9.166;2023-06-14T19:18:12;28.50;45.30
6752;DHT22;3413;47.680;9.166;2023-06-14T19:23:14;28.40;45.30
6752;DHT22;3413;47.680;9.166;2023-06-14T19:28:16;28.30;45.30
6752;DHT22;3413;47.680;9.166;2023-06-14T19:33:18;28.30;45.30
6752;DHT22;3413;47.680;9.166;2023-06-14T19:38:20;28.30;45.30
6752;DHT22;3413;47.680;9.166;2023-06-14T19:43:22;28.20;45.40
6752;DHT22;3413;47.680;9.166;2023-06-14T19:48:24;28.00;45.50
6752;DHT22;3413;47.680;9.166;2023-06-14T19:53:27;27.90;45.60
6752;DHT22;3413;47.680;9.166;2023-06-14T19:58:29;27.70;45.60
6752;DHT22;3413;47.680;9.166;2023-06-14T20:03:31;27.40;45.80
6752;DHT22;3413;47.680;9.166;2023-06-14T20:08:33;27.10;45.90
6752;DHT22;3413;47.680;9.166;2023-06-14T20:13:35;27.00;46.00
6752;DHT22;3413;47.680;9.166;2023-06-14T20:18:38;26.90;46.00
6752;DHT22;3413;47.680;9.166;2023-06-14T20:23:40;26.60;46.30
6752;DHT22;3413;47.680;9.166;2023-06-14T20:28:42;26.50;46.30
6752;DHT22;3413;47.680;9.166;2023-06-14T20:33:44;26.50;46.30
6752;DHT22;3413;47.680;9.166;2023-06-14T20:38:47;26.30;46.40
6752;DHT22;3413;47.680;9.166;2023-06-14T20:43:49;26.10;46.50
6752;DHT22;3413;47.680;9.166;2023-06-14T20:48:51;25.90;46.60
6752;DHT22;3413;47.680;9.166;2023-06-14T20:53:53;25.70;46.70
6752;DHT22;3413;47.680;9.166;2023-06-14T20:58:55;25.50;46.80
6752;DHT22;3413;47.680;9.166;2023-06-14T21:03:57;25.40;46.80
6752;DHT22;3413;47.680;9.166;2023-06-14T21:08:59;25.10;46.80
6752;DHT22;3413;47.680;9.166;2023-06-14T21:14:01;24.90;47.00
6752;DHT22;3413;47.680;9.166;2023-06-14T21:19:03;24.80;46.90
6752;DHT22;3413;47.680;9.166;2023-06-14T21:24:05;24.70;46.90
6752;DHT22;3413;47.680;9.166;2023-06-14T21:29:07;24.60;46.90
6752;DHT22;3413;47.680;9.166;2023-06-14T21:34:09;24.40;46.90
6752;DHT22;3413;47.680;9.166;2023-06-14T21:39:11;24.20;46.90
6752;DHT22;3413;47.680;9.166;2023-06-14T21:44:13;24.10;46.90
6752;DHT22;3413;47.680;9.166;2023-06-14T21:49:15;24.20;46.90
6752;DHT22;3413;47.680;9.166;2023-06-14T21:54:17;24.20;46.90
6752;DHT22;3413;47.680;9.166;2023-06-14T21:59:19;24.10;46.80
6752;DHT22;3413;47.680;9.166;2023-06-14T22:04:21;24.00;46.90
6752;DHT22;3413;47.680;9.166;2023-06-14T22:09:23;23.90;46.90
6752;DHT22;3413;47.680;9.166;2023-06-14T22:14:27;23.90;47.00
6752;DHT22;3413;47.680;9.166;2023-06-14T22:19:32;23.90;47.00
6752;DHT22;3413;47.680;9.166;2023-06-14T22:24:38;23.90;47.00
6752;DHT22;3413;47.680;9.166;2023-06-14T22:29:42;23.80;47.00
6752;DHT22;3413;47.680;9.166;2023-06-14T22:34:46;23.80;47.10
6752;DHT22;3413;47.680;9.166;2023-06-14T22:39:48;23.80;47.10
6752;DHT22;3413;47.680;9.166;2023-06-14T22:44:50;23.80;47.80
6752;DHT22;3413;47.680;9.166;2023-06-14T22:49:52;23.70;47.20
6752;DHT22;3413;47.680;9.166;2023-06-14T22:55:10;23.60;47.20
6752;DHT22;3413;47.680;9.166;2023-06-14T23:00:12;23.50;47.20
6752;DHT22;3413;47.680;9.166;2023-06-14T23:05:16;23.50;47.40
6752;DHT22;3413;47.680;9.166;2023-06-14T23:10:20;23.30;47.30
6752;DHT22;3413;47.680;9.166;2023-06-14T23:15:24;23.30;47.40
6752;DHT22;3413;47.680;9.166;2023-06-14T23:20:27;23.10;47.80
6752;DHT22;3413;47.680;9.166;2023-06-14T23:25:31;23.00;47.50
6752;DHT22;3413;47.680;9.166;2023-06-14T23:30:36;22.80;47.50
6752;DHT22;3413;47.680;9.166;2023-06-14T23:35:39;22.60;47.50
6752;DHT22;3413;47.680;9.166;2023-06-14T23:40:42;22.50;47.60
6752;DHT22;3413;47.680;9.166;2023-06-14T23:45:47;22.30;47.60
6752;DHT22;3413;47.680;9.166;2023-06-14T23:50:53;22.20;47.80
6752;DHT22;3413;47.680;9.166;2023-06-14T23:55:55;22.20;47.70
